createdAt,value
2018-11-27T00:00:55.737Z,60.30
2018-11-27T00:01:55.725Z,58.90
2018-11-27T00:02:55.713Z,54.90
2018-11-27T00:03:55.703Z,63.90
2018-11-27T00:04:55.688Z,63.10
2018-11-27T00:05:55.685Z,61.40
2018-11-27T00:06:55.664Z,59.10
2018-11-27T00:07:55.655Z,61.60
2018-11-27T00:08:55.647Z,61.60
2018-11-27T00:09:55.630Z,67.00
2018-11-27T00:10:55.616Z,60.80
2018-11-27T00:11:55.613Z,65.00
2018-11-27T00:12:55.597Z,64.00
2018-11-27T00:13:55.579Z,65.10
2018-11-27T00:14:55.572Z,58.80
2018-11-27T00:15:55.562Z,65.70
2018-11-27T00:16:55.546Z,66.40
2018-11-27T00:17:55.536Z,63.20
2018-11-27T00:18:55.525Z,64.10
2018-11-27T00:19:55.510Z,68.30
2018-11-27T00:20:55.498Z,65.00
2018-11-27T00:21:55.492Z,72.50
2018-11-27T00:22:55.476Z,66.40
2018-11-27T00:23:55.464Z,69.30
2018-11-27T00:24:55.452Z,69.20
2018-11-27T00:25:55.449Z,68.70
2018-11-27T00:26:55.433Z,66.80
2018-11-27T00:27:55.411Z,68.10
2018-11-27T00:28:55.412Z,66.20
2018-11-27T00:29:55.393Z,67.00
2018-11-27T00:30:55.382Z,64.50
2018-11-27T00:31:55.366Z,65.80
2018-11-27T00:32:55.358Z,61.30
2018-11-27T00:33:55.345Z,61.80
2018-11-27T00:34:55.328Z,68.30
2018-11-27T00:35:55.322Z,67.60
2018-11-27T00:36:55.308Z,68.40
2018-11-27T00:37:55.293Z,67.70
2018-11-27T00:38:55.284Z,69.70
2018-11-27T00:39:55.275Z,68.60
2018-11-27T00:40:55.260Z,71.70
2018-11-27T00:41:55.249Z,67.50
2018-11-27T00:42:55.244Z,62.70
2018-11-27T00:43:55.223Z,62.00
2018-11-27T00:44:55.207Z,61.20
2018-11-27T00:45:55.199Z,70.50
2018-11-27T00:46:55.188Z,68.40
2018-11-27T00:47:55.175Z,67.50
2018-11-27T00:48:55.159Z,67.80
2018-11-27T00:49:55.147Z,62.90
2018-11-27T00:50:55.143Z,67.00
2018-11-27T00:51:55.123Z,59.30
2018-11-27T00:52:55.112Z,58.20
2018-11-27T00:53:55.106Z,67.40
2018-11-27T00:54:58.672Z,57.70
2018-11-27T00:55:55.079Z,67.40
2018-11-27T00:56:55.066Z,55.60
2018-11-27T00:57:55.057Z,73.30
2018-11-27T00:58:55.039Z,71.50
2018-11-27T00:59:55.029Z,73.20
2018-11-27T01:00:55.017Z,74.20
2018-11-27T01:01:55.010Z,75.60
2018-11-27T01:02:54.999Z,75.20
2018-11-27T01:03:54.981Z,71.20
2018-11-27T01:04:54.971Z,74.50
2018-11-27T01:05:54.956Z,71.10
2018-11-27T01:06:54.943Z,72.70
2018-11-27T01:07:54.950Z,77.60
2018-11-27T01:08:54.919Z,74.90
2018-11-27T01:09:54.909Z,77.90
2018-11-27T01:10:54.893Z,76.70
2018-11-27T01:11:54.885Z,77.00
2018-11-27T01:12:54.867Z,76.30
2018-11-27T01:13:55.759Z,74.40
2018-11-27T01:14:54.846Z,75.20
2018-11-27T01:15:54.834Z,72.00
2018-11-27T01:16:54.819Z,74.10
2018-11-27T01:17:54.820Z,80.00
2018-11-27T01:18:54.797Z,75.70
2018-11-27T01:19:54.783Z,67.80
2018-11-27T01:20:54.782Z,67.70
2018-11-27T01:21:54.757Z,74.90
2018-11-27T01:22:54.749Z,72.90
2018-11-27T01:23:54.733Z,73.60
2018-11-27T01:24:54.725Z,73.60
2018-11-27T01:25:54.711Z,68.90
2018-11-27T01:26:54.698Z,68.30
2018-11-27T01:27:54.683Z,66.00
2018-11-27T01:28:54.672Z,64.70
2018-11-27T01:29:54.663Z,70.50
2018-11-27T01:30:54.650Z,68.60
2018-11-27T01:31:54.637Z,67.90
2018-11-27T01:32:54.623Z,58.40
2018-11-27T01:33:54.613Z,64.20
2018-11-27T01:34:54.600Z,63.90
2018-11-27T01:35:54.587Z,69.90
2018-11-27T01:36:54.577Z,71.40
2018-11-27T01:37:54.568Z,65.40
2018-11-27T01:38:54.556Z,64.30
2018-11-27T01:39:54.538Z,62.90
2018-11-27T01:40:54.532Z,67.00
2018-11-27T01:41:54.514Z,68.30
2018-11-27T01:42:54.506Z,68.80
2018-11-27T01:43:54.488Z,65.40
2018-11-27T01:44:54.477Z,58.70
2018-11-27T01:45:54.468Z,63.00
2018-11-27T01:46:54.452Z,68.10
2018-11-27T01:47:54.442Z,67.10
2018-11-27T01:48:54.430Z,67.40
2018-11-27T01:49:54.413Z,64.90
2018-11-27T01:50:54.402Z,60.30
2018-11-27T01:51:54.396Z,59.80
2018-11-27T01:52:54.379Z,62.10
2018-11-27T01:53:54.363Z,61.60
2018-11-27T01:54:54.359Z,62.10
2018-11-27T01:55:54.340Z,63.20
2018-11-27T01:56:54.328Z,65.60
2018-11-27T01:57:54.321Z,60.60
2018-11-27T01:58:54.303Z,60.20
2018-11-27T01:59:54.292Z,60.40
2018-11-27T02:00:54.278Z,57.20
2018-11-27T02:01:54.267Z,58.60
2018-11-27T02:02:54.255Z,62.50
2018-11-27T02:03:54.239Z,64.00
2018-11-27T02:04:54.230Z,63.00
2018-11-27T02:05:54.227Z,60.30
2018-11-27T02:06:54.206Z,66.00
2018-11-27T02:07:54.191Z,61.90
2018-11-27T02:08:54.182Z,54.10
2018-11-27T02:09:54.171Z,57.90
2018-11-27T02:10:54.152Z,58.30
2018-11-27T02:11:54.143Z,53.60
2018-11-27T02:12:54.140Z,66.70
2018-11-27T02:13:54.125Z,61.80
2018-11-27T02:14:54.106Z,58.90
2018-11-27T02:15:54.094Z,58.70
2018-11-27T02:16:54.085Z,58.70
2018-11-27T02:17:54.072Z,61.10
2018-11-27T02:18:54.056Z,59.50
2018-11-27T02:19:54.054Z,56.60
2018-11-27T02:20:54.033Z,57.30
2018-11-27T02:21:54.017Z,56.80
2018-11-27T02:22:54.008Z,53.60
2018-11-27T02:23:53.999Z,57.20
2018-11-27T02:24:53.985Z,61.50
2018-11-27T02:25:53.970Z,60.40
2018-11-27T02:26:53.961Z,59.70
2018-11-27T02:27:53.940Z,59.10
2018-11-27T02:28:53.937Z,59.90
2018-11-27T02:29:53.922Z,62.60
2018-11-27T02:30:53.909Z,65.90
2018-11-27T02:31:53.899Z,58.60
2018-11-27T02:32:53.883Z,60.50
2018-11-27T02:33:53.871Z,53.30
2018-11-27T02:34:53.868Z,54.20
2018-11-27T02:35:53.849Z,56.70
2018-11-27T02:36:53.832Z,57.80
2018-11-27T02:37:53.825Z,59.00
2018-11-27T02:38:53.815Z,56.70
2018-11-27T02:39:53.800Z,51.30
2018-11-27T02:40:53.792Z,52.60
2018-11-27T02:41:53.773Z,56.20
2018-11-27T02:42:53.762Z,50.50
2018-11-27T02:43:53.749Z,49.60
2018-11-27T02:44:53.738Z,49.60
2018-11-27T02:45:53.725Z,49.30
2018-11-27T02:46:53.717Z,52.80
2018-11-27T02:47:53.697Z,56.70
2018-11-27T02:48:53.686Z,58.50
2018-11-27T02:49:53.677Z,55.20
2018-11-27T02:50:53.660Z,55.10
2018-11-27T02:51:53.649Z,56.60
2018-11-27T02:52:53.641Z,57.40
2018-11-27T02:53:53.623Z,50.70
2018-11-27T02:54:53.615Z,55.50
2018-11-27T02:55:53.595Z,53.70
2018-11-27T02:56:53.589Z,52.80
2018-11-27T02:57:53.577Z,52.40
2018-11-27T02:58:53.565Z,53.50
2018-11-27T02:59:53.552Z,51.90
2018-11-27T03:00:53.540Z,49.00
2018-11-27T03:01:53.525Z,52.30
2018-11-27T03:02:53.518Z,52.30
2018-11-27T03:03:53.499Z,54.10
2018-11-27T03:04:53.490Z,50.20
2018-11-27T03:05:53.474Z,46.80
2018-11-27T03:06:53.464Z,45.00
2018-11-27T03:07:53.451Z,45.90
2018-11-27T03:08:53.442Z,49.10
2018-11-27T03:09:53.432Z,47.50
2018-11-27T03:10:53.409Z,45.80
2018-11-27T03:11:53.411Z,46.20
2018-11-27T03:12:53.387Z,53.00
2018-11-27T03:13:53.375Z,47.80
2018-11-27T03:14:53.372Z,48.00
2018-11-27T03:15:53.353Z,52.30
2018-11-27T03:16:53.338Z,48.60
2018-11-27T03:17:53.322Z,47.80
2018-11-27T03:18:53.322Z,47.60
2018-11-27T03:19:53.310Z,49.50
2018-11-27T03:20:53.294Z,49.20
2018-11-27T03:21:53.278Z,48.90
2018-11-27T03:22:53.270Z,49.60
2018-11-27T03:23:53.253Z,49.60
2018-11-27T03:24:53.239Z,50.90
2018-11-27T03:25:53.227Z,48.40
2018-11-27T03:26:53.225Z,50.40
2018-11-27T03:27:53.212Z,46.60
2018-11-27T03:28:53.187Z,47.70
2018-11-27T03:29:53.176Z,46.80
2018-11-27T03:30:53.166Z,46.10
2018-11-27T03:31:53.157Z,44.80
2018-11-27T03:32:53.143Z,48.50
2018-11-27T03:33:53.132Z,50.10
2018-11-27T03:34:53.119Z,47.00
2018-11-27T03:35:53.103Z,48.20
2018-11-27T03:36:53.093Z,44.90
2018-11-27T03:37:53.085Z,45.20
2018-11-27T03:38:53.062Z,46.10
2018-11-27T03:39:53.050Z,46.80
2018-11-27T03:40:53.042Z,48.40
2018-11-27T03:41:53.025Z,45.70
2018-11-27T03:42:53.020Z,45.00
2018-11-27T03:43:53.005Z,43.90
2018-11-27T03:44:52.989Z,42.00
2018-11-27T03:45:52.974Z,44.30
2018-11-27T03:46:52.960Z,44.70
2018-11-27T03:47:52.959Z,41.90
2018-11-27T03:48:52.941Z,43.40
2018-11-27T03:49:52.925Z,43.50
2018-11-27T03:50:52.921Z,41.70
2018-11-27T03:51:52.900Z,44.60
2018-11-27T03:52:52.895Z,43.50
2018-11-27T03:53:52.878Z,42.00
2018-11-27T03:54:52.866Z,40.10
2018-11-27T03:55:52.852Z,40.40
2018-11-27T03:56:52.837Z,40.70
2018-11-27T03:57:52.825Z,39.70
2018-11-27T03:58:52.812Z,41.40
2018-11-27T03:59:52.806Z,42.40
2018-11-27T04:00:52.787Z,38.60
2018-11-27T04:01:52.772Z,40.50
2018-11-27T04:02:52.760Z,38.70
2018-11-27T04:03:52.748Z,38.20
2018-11-27T04:04:52.738Z,38.50
2018-11-27T04:05:52.724Z,42.30
2018-11-27T04:06:52.707Z,40.50
2018-11-27T04:07:52.703Z,40.20
2018-11-27T04:08:52.688Z,41.80
2018-11-27T04:09:52.670Z,37.40
2018-11-27T04:10:52.667Z,40.20
2018-11-27T04:11:52.653Z,41.90
2018-11-27T04:12:52.634Z,38.80
2018-11-27T04:13:52.621Z,41.80
2018-11-27T04:14:52.610Z,40.30
2018-11-27T04:15:52.596Z,41.60
2018-11-27T04:16:52.589Z,42.20
2018-11-27T04:17:52.568Z,40.40
2018-11-27T04:18:52.565Z,40.00
2018-11-27T04:19:52.548Z,41.40
2018-11-27T04:20:52.537Z,42.50
2018-11-27T04:21:52.522Z,41.50
2018-11-27T04:22:52.506Z,41.60
2018-11-27T04:23:52.507Z,41.60
2018-11-27T04:24:52.495Z,41.10
2018-11-27T04:25:52.471Z,42.30
2018-11-27T04:26:52.457Z,42.90
2018-11-27T04:27:52.444Z,41.00
2018-11-27T04:28:52.433Z,41.70
2018-11-27T04:29:52.421Z,42.70
2018-11-27T04:30:52.414Z,41.30
2018-11-27T04:31:52.395Z,44.90
2018-11-27T04:32:52.393Z,42.00
2018-11-27T04:33:52.368Z,41.80
2018-11-27T04:34:52.364Z,43.20
2018-11-27T04:35:52.343Z,43.80
2018-11-27T04:36:52.331Z,43.40
2018-11-27T04:37:52.318Z,41.30
2018-11-27T04:38:52.303Z,41.00
2018-11-27T04:39:52.289Z,43.20
2018-11-27T04:40:52.298Z,42.60
2018-11-27T04:41:52.280Z,40.50
2018-11-27T04:42:52.254Z,37.90
2018-11-27T04:43:52.241Z,42.80
2018-11-27T04:44:52.232Z,41.60
2018-11-27T04:45:52.225Z,43.90
2018-11-27T04:46:52.211Z,39.50
2018-11-27T04:47:52.188Z,39.30
2018-11-27T04:48:52.180Z,38.50
2018-11-27T04:49:52.175Z,40.70
2018-11-27T04:50:52.154Z,38.50
2018-11-27T04:51:52.144Z,38.10
2018-11-27T04:52:52.131Z,34.90
2018-11-27T04:53:52.116Z,39.70
2018-11-27T04:54:52.106Z,37.80
2018-11-27T04:55:52.091Z,39.60
2018-11-27T04:56:52.077Z,37.10
2018-11-27T04:57:52.073Z,40.60
2018-11-27T04:58:52.715Z,36.90
2018-11-27T04:59:52.036Z,37.30
2018-11-27T05:00:52.032Z,38.40
2018-11-27T05:01:52.016Z,37.50
2018-11-27T05:02:52.000Z,40.10
2018-11-27T05:03:51.984Z,38.30
2018-11-27T05:04:51.975Z,39.20
2018-11-27T05:05:51.968Z,38.80
2018-11-27T05:06:51.950Z,38.40
2018-11-27T05:07:51.937Z,37.80
2018-11-27T05:08:51.931Z,38.60
2018-11-27T05:09:51.919Z,36.00
2018-11-27T05:10:51.902Z,37.10
2018-11-27T05:11:51.885Z,37.10
2018-11-27T05:12:51.871Z,37.30
2018-11-27T05:13:51.869Z,37.80
2018-11-27T05:14:51.849Z,35.90
2018-11-27T05:15:51.834Z,36.40
2018-11-27T05:16:51.826Z,36.70
2018-11-27T05:17:51.807Z,34.90
2018-11-27T05:18:51.803Z,39.10
2018-11-27T05:19:51.783Z,37.30
2018-11-27T05:20:51.769Z,38.30
2018-11-27T05:21:51.763Z,35.20
2018-11-27T05:22:51.745Z,36.00
2018-11-27T05:23:51.730Z,36.30
2018-11-27T05:24:51.724Z,36.40
2018-11-27T05:25:51.705Z,36.80
2018-11-27T05:26:51.692Z,37.30
2018-11-27T05:27:51.679Z,36.50
2018-11-27T05:28:51.667Z,35.20
2018-11-27T05:29:51.653Z,36.80
2018-11-27T05:30:51.641Z,37.30
2018-11-27T05:31:51.628Z,35.90
2018-11-27T05:32:51.620Z,35.70
2018-11-27T05:33:51.601Z,35.80
2018-11-27T05:34:51.585Z,36.20
2018-11-27T05:35:51.586Z,38.20
2018-11-27T05:36:51.562Z,36.60
2018-11-27T05:37:51.553Z,34.40
2018-11-27T05:38:51.537Z,35.90
2018-11-27T05:39:51.525Z,35.50
2018-11-27T05:40:51.517Z,36.00
2018-11-27T05:41:51.496Z,33.90
2018-11-27T05:42:51.485Z,36.50
2018-11-27T05:43:51.471Z,36.30
2018-11-27T05:44:51.456Z,35.70
2018-11-27T05:45:51.456Z,38.20
2018-11-27T05:46:51.431Z,39.00
2018-11-27T05:47:51.418Z,38.70
2018-11-27T05:48:51.419Z,38.60
2018-11-27T05:49:51.396Z,36.60
2018-11-27T05:50:51.378Z,37.50
2018-11-27T05:51:51.364Z,36.90
2018-11-27T05:52:51.353Z,37.90
2018-11-27T05:53:51.341Z,37.20
2018-11-27T05:54:51.328Z,37.90
2018-11-27T05:55:51.313Z,36.00
2018-11-27T05:56:51.300Z,37.20
2018-11-27T05:57:51.290Z,35.40
2018-11-27T05:58:51.278Z,36.00
2018-11-27T05:59:51.278Z,36.70
2018-11-27T06:00:51.245Z,38.60
2018-11-27T06:01:51.239Z,35.10
2018-11-27T06:02:51.221Z,36.90
2018-11-27T06:03:51.207Z,36.40
2018-11-27T06:04:51.195Z,35.10
2018-11-27T06:05:51.184Z,36.40
2018-11-27T06:06:51.178Z,37.30
2018-11-27T06:07:51.157Z,36.00
2018-11-27T06:08:51.142Z,35.50
2018-11-27T06:09:51.132Z,35.50
2018-11-27T06:10:51.116Z,35.30
2018-11-27T06:11:51.107Z,35.40
2018-11-27T06:12:51.091Z,33.60
2018-11-27T06:13:51.081Z,35.20
2018-11-27T06:14:51.068Z,35.70
2018-11-27T06:15:51.092Z,34.50
2018-11-27T06:16:51.039Z,37.30
2018-11-27T06:17:51.029Z,33.70
2018-11-27T06:18:51.010Z,35.20
2018-11-27T06:19:51.000Z,36.50
2018-11-27T06:20:50.986Z,33.40
2018-11-27T06:21:50.974Z,35.40
2018-11-27T06:22:50.959Z,34.00
2018-11-27T06:23:50.951Z,34.20
2018-11-27T06:24:50.936Z,34.70
2018-11-27T06:25:50.923Z,34.80
2018-11-27T06:26:50.909Z,35.10
2018-11-27T06:27:50.895Z,34.30
2018-11-27T06:28:50.883Z,32.00
2018-11-27T06:29:50.872Z,31.60
2018-11-27T06:30:50.861Z,33.40
2018-11-27T06:31:50.842Z,32.10
2018-11-27T06:32:50.859Z,35.10
2018-11-27T06:33:50.821Z,32.90
2018-11-27T06:34:50.805Z,32.80
2018-11-27T06:35:50.792Z,32.40
2018-11-27T06:36:50.779Z,31.90
2018-11-27T06:37:50.784Z,34.00
2018-11-27T06:38:50.758Z,31.60
2018-11-27T06:39:50.737Z,35.70
2018-11-27T06:40:50.725Z,34.50
2018-11-27T06:41:50.744Z,33.30
2018-11-27T06:42:50.701Z,34.40
2018-11-27T06:43:50.689Z,34.10
2018-11-27T06:44:50.684Z,35.00
2018-11-27T06:45:50.669Z,36.10
2018-11-27T06:46:50.649Z,34.20
2018-11-27T06:47:50.640Z,31.30
2018-11-27T06:48:50.627Z,32.20
2018-11-27T06:49:50.614Z,34.30
2018-11-27T06:50:50.601Z,31.60
2018-11-27T06:51:50.590Z,34.40
2018-11-27T06:52:50.579Z,32.40
2018-11-27T06:53:50.563Z,34.80
2018-11-27T06:54:50.550Z,31.70
2018-11-27T06:55:50.544Z,31.10
2018-11-27T06:56:50.539Z,33.10
2018-11-27T06:57:50.517Z,30.00
2018-11-27T06:58:50.526Z,33.10
2018-11-27T06:59:50.485Z,31.50
2018-11-27T07:00:50.477Z,30.90
2018-11-27T07:01:50.461Z,32.90
2018-11-27T07:02:50.466Z,33.10
2018-11-27T07:03:50.436Z,30.70
2018-11-27T07:04:50.424Z,33.60
2018-11-27T07:05:50.410Z,33.20
2018-11-27T07:06:50.406Z,31.60
2018-11-27T07:07:50.387Z,32.80
2018-11-27T07:08:50.373Z,31.50
2018-11-27T07:09:50.364Z,33.10
2018-11-27T07:10:50.349Z,31.10
2018-11-27T07:11:50.342Z,30.20
2018-11-27T07:12:50.352Z,30.40
2018-11-27T07:13:50.315Z,29.10
2018-11-27T07:14:50.307Z,32.10
2018-11-27T07:15:50.287Z,31.90
2018-11-27T07:16:50.283Z,33.00
2018-11-27T07:17:50.266Z,31.10
2018-11-27T07:18:50.259Z,31.80
2018-11-27T07:19:50.237Z,34.40
2018-11-27T07:20:50.224Z,33.50
2018-11-27T07:21:50.215Z,33.90
2018-11-27T07:22:50.206Z,32.70
2018-11-27T07:23:50.186Z,32.90
2018-11-27T07:24:50.177Z,32.90
2018-11-27T07:25:50.171Z,32.00
2018-11-27T07:26:52.864Z,33.20
2018-11-27T07:27:50.142Z,31.00
2018-11-27T07:28:50.128Z,33.50
2018-11-27T07:29:50.125Z,34.70
2018-11-27T07:30:50.106Z,34.70
2018-11-27T07:31:50.088Z,33.90
2018-11-27T07:32:50.077Z,33.70
2018-11-27T07:33:50.072Z,34.10
2018-11-27T07:34:50.055Z,31.90
2018-11-27T07:35:50.043Z,32.20
2018-11-27T07:36:50.048Z,32.50
2018-11-27T07:37:50.020Z,31.20
2018-11-27T07:38:50.007Z,31.20
2018-11-27T07:39:50.000Z,34.30
2018-11-27T07:40:49.982Z,31.60
2018-11-27T07:41:49.975Z,33.80
2018-11-27T07:42:49.956Z,31.50
2018-11-27T07:43:49.942Z,33.00
2018-11-27T07:44:49.933Z,32.90
2018-11-27T07:45:55.079Z,32.40
2018-11-27T07:46:49.906Z,32.20
2018-11-27T07:47:49.897Z,33.10
2018-11-27T07:48:49.884Z,31.20
2018-11-27T07:49:49.873Z,31.90
2018-11-27T07:50:49.864Z,35.40
2018-11-27T07:51:49.843Z,34.30
2018-11-27T07:52:49.837Z,33.40
2018-11-27T07:53:49.832Z,30.30
2018-11-27T07:54:49.816Z,31.30
2018-11-27T07:55:49.797Z,36.80
2018-11-27T07:56:49.790Z,32.80
2018-11-27T07:57:49.777Z,32.00
2018-11-27T07:58:49.760Z,36.50
2018-11-27T07:59:49.750Z,35.80
2018-11-27T08:00:49.745Z,34.60
2018-11-27T08:01:49.730Z,35.40
2018-11-27T08:02:49.717Z,38.60
2018-11-27T08:03:49.702Z,36.00
2018-11-27T08:04:49.691Z,37.20
2018-11-27T08:05:49.679Z,36.70
2018-11-27T08:06:49.665Z,34.10
2018-11-27T08:07:49.654Z,34.00
2018-11-27T08:08:49.677Z,36.10
2018-11-27T08:09:49.628Z,36.00
2018-11-27T08:10:49.622Z,35.50
2018-11-27T08:11:49.604Z,35.40
2018-11-27T08:12:49.596Z,40.10
2018-11-27T08:13:49.582Z,42.10
2018-11-27T08:14:49.585Z,45.10
2018-11-27T08:15:49.565Z,37.40
2018-11-27T08:16:49.548Z,40.40
2018-11-27T08:17:49.688Z,43.70
2018-11-27T08:18:49.530Z,36.20
2018-11-27T08:19:49.513Z,35.70
2018-11-27T08:20:49.498Z,33.90
2018-11-27T08:21:49.487Z,42.80
2018-11-27T08:22:49.481Z,37.80
2018-11-27T08:23:49.467Z,34.90
2018-11-27T08:24:49.454Z,32.20
2018-11-27T08:25:49.450Z,39.00
2018-11-27T08:26:49.428Z,36.20
2018-11-27T08:27:49.415Z,37.10
2018-11-27T08:28:49.409Z,39.70
2018-11-27T08:29:49.397Z,35.00
2018-11-27T08:30:49.382Z,35.50
2018-11-27T08:31:49.367Z,32.60
2018-11-27T08:32:49.362Z,34.70
2018-11-27T08:33:49.349Z,33.20
2018-11-27T08:34:49.391Z,32.10
2018-11-27T08:35:49.325Z,33.60
2018-11-27T08:36:49.312Z,29.50
2018-11-27T08:37:49.297Z,38.10
2018-11-27T08:38:49.296Z,30.70
2018-11-27T08:39:49.276Z,35.40
2018-11-27T08:40:49.286Z,36.30
2018-11-27T08:41:49.252Z,34.50
2018-11-27T08:42:49.245Z,33.10
2018-11-27T08:43:49.229Z,34.80
2018-11-27T08:44:49.219Z,31.90
2018-11-27T08:45:49.211Z,34.30
2018-11-27T08:46:49.323Z,35.40
2018-11-27T08:47:49.190Z,31.50
2018-11-27T08:48:49.172Z,33.80
2018-11-27T08:49:49.158Z,33.20
2018-11-27T08:50:49.150Z,33.50
2018-11-27T08:51:49.139Z,31.80
2018-11-27T08:52:49.124Z,31.70
2018-11-27T08:53:49.113Z,34.60
2018-11-27T08:54:49.107Z,33.20
2018-11-27T08:55:49.092Z,30.90
2018-11-27T08:56:49.079Z,32.20
2018-11-27T08:57:49.093Z,32.00
2018-11-27T08:58:49.059Z,29.70
2018-11-27T08:59:49.044Z,33.80
2018-11-27T09:00:49.035Z,34.60
2018-11-27T09:01:49.030Z,28.70
2018-11-27T09:02:49.014Z,30.20
2018-11-27T09:03:49.002Z,27.00
2018-11-27T09:04:48.994Z,29.70
2018-11-27T09:05:48.976Z,31.40
2018-11-27T09:06:48.970Z,30.90
2018-11-27T09:07:48.960Z,30.30
2018-11-27T09:08:48.938Z,32.10
2018-11-27T09:09:48.957Z,31.80
2018-11-27T09:10:49.008Z,33.20
2018-11-27T09:11:48.909Z,33.70
2018-11-27T09:12:48.898Z,30.90
2018-11-27T09:13:49.023Z,32.00
2018-11-27T09:14:48.889Z,30.70
2018-11-27T09:15:48.861Z,33.50
2018-11-27T09:16:48.855Z,29.70
2018-11-27T09:17:48.843Z,26.70
2018-11-27T09:18:48.826Z,29.10
2018-11-27T09:19:48.863Z,31.30
2018-11-27T09:20:48.928Z,31.40
2018-11-27T09:21:49.360Z,29.10
2018-11-27T09:22:49.337Z,28.30
2018-11-27T09:23:49.147Z,27.70
2018-11-27T09:24:49.126Z,27.80
2018-11-27T09:25:48.751Z,31.00
2018-11-27T09:26:49.048Z,29.40
2018-11-27T09:27:49.300Z,28.80
2018-11-27T09:28:48.849Z,28.50
2018-11-27T09:29:49.169Z,28.40
2018-11-27T09:30:49.040Z,26.10
2018-11-27T09:31:49.247Z,26.20
2018-11-27T09:32:49.169Z,30.10
2018-11-27T09:33:49.147Z,28.30
2018-11-27T09:34:49.063Z,26.80
2018-11-27T09:35:51.583Z,27.80
2018-11-27T09:36:50.246Z,27.90
2018-11-27T09:37:48.620Z,27.10
2018-11-27T09:38:48.612Z,27.30
2018-11-27T09:39:48.599Z,25.20
2018-11-27T09:40:48.585Z,30.00
2018-11-27T09:41:48.764Z,26.10
2018-11-27T09:42:48.885Z,28.30
2018-11-27T09:43:48.563Z,27.70
2018-11-27T09:44:48.663Z,32.20
2018-11-27T09:45:48.546Z,27.00
2018-11-27T09:46:48.520Z,30.40
2018-11-27T09:47:48.508Z,26.20
2018-11-27T09:48:48.498Z,26.30
2018-11-27T09:49:48.487Z,30.00
2018-11-27T09:50:48.481Z,29.20
2018-11-27T09:51:48.567Z,27.10
2018-11-27T09:52:48.954Z,27.30
2018-11-27T09:53:48.870Z,25.90
2018-11-27T09:54:48.533Z,26.30
2018-11-27T09:55:48.620Z,28.50
2018-11-27T09:56:48.709Z,27.20
2018-11-27T09:57:48.527Z,25.50
2018-11-27T09:58:48.540Z,29.40
2018-11-27T09:59:48.435Z,30.80
2018-11-27T10:00:48.557Z,26.30
2018-11-27T10:01:48.428Z,27.10
2018-11-27T10:02:48.368Z,30.30
2018-11-27T10:03:48.342Z,28.00
2018-11-27T10:04:48.369Z,31.00
2018-11-27T10:05:48.318Z,29.60
2018-11-27T10:06:48.304Z,28.90
2018-11-27T10:07:48.288Z,29.50
2018-11-27T10:08:48.349Z,30.00
2018-11-27T10:09:48.284Z,30.10
2018-11-27T10:10:48.286Z,33.00
2018-11-27T10:11:48.256Z,29.80
2018-11-27T10:12:48.246Z,30.80
2018-11-27T10:13:48.238Z,33.50
2018-11-27T10:14:48.257Z,30.10
2018-11-27T10:15:48.262Z,31.30
2018-11-27T10:16:48.189Z,31.80
2018-11-27T10:17:48.195Z,33.70
2018-11-27T10:18:48.177Z,31.00
2018-11-27T10:19:48.158Z,30.40
2018-11-27T10:20:48.166Z,34.80
2018-11-27T10:21:48.257Z,30.20
2018-11-27T10:22:48.148Z,29.20
2018-11-27T10:23:48.125Z,29.30
2018-11-27T10:24:48.202Z,26.90
2018-11-27T10:25:48.094Z,28.30
2018-11-27T10:26:48.084Z,28.00
2018-11-27T10:27:48.077Z,32.00
2018-11-27T10:28:48.079Z,28.40
2018-11-27T10:29:48.051Z,30.20
2018-11-27T10:30:48.040Z,31.00
2018-11-27T10:31:48.025Z,28.80
2018-11-27T10:32:48.023Z,29.00
2018-11-27T10:33:48.005Z,28.20
2018-11-27T10:34:48.760Z,29.50
2018-11-27T10:35:47.985Z,28.40
2018-11-27T10:36:47.975Z,27.70
2018-11-27T10:37:47.959Z,27.10
2018-11-27T10:38:47.952Z,29.50
2018-11-27T10:39:47.939Z,28.90
2018-11-27T10:40:47.928Z,29.60
2018-11-27T10:41:47.921Z,28.90
2018-11-27T10:42:47.954Z,29.70
2018-11-27T10:43:47.895Z,29.50
2018-11-27T10:44:47.883Z,28.40
2018-11-27T10:45:47.873Z,29.60
2018-11-27T10:46:47.860Z,28.40
2018-11-27T10:47:47.853Z,29.20
2018-11-27T10:48:47.842Z,27.40
2018-11-27T10:49:47.825Z,28.10
2018-11-27T10:50:47.871Z,31.10
2018-11-27T10:51:48.339Z,28.00
2018-11-27T10:52:47.793Z,28.20
2018-11-27T10:53:47.782Z,29.70
2018-11-27T10:54:47.781Z,29.60
2018-11-27T10:55:47.761Z,28.50
2018-11-27T10:56:47.752Z,29.60
2018-11-27T10:57:47.742Z,29.60
2018-11-27T10:58:47.729Z,28.00
2018-11-27T10:59:47.718Z,27.50
2018-11-27T11:00:47.704Z,27.50
2018-11-27T11:01:47.694Z,25.30
2018-11-27T11:02:47.684Z,27.00
2018-11-27T11:03:47.677Z,26.10
2018-11-27T11:04:47.660Z,26.10
2018-11-27T11:05:47.650Z,25.10
2018-11-27T11:06:47.652Z,26.30
2018-11-27T11:07:47.629Z,27.50
2018-11-27T11:08:47.617Z,26.50
2018-11-27T11:09:47.601Z,26.70
2018-11-27T11:10:47.605Z,25.60
2018-11-27T11:11:47.586Z,28.00
2018-11-27T11:12:47.573Z,32.10
2018-11-27T11:13:47.625Z,26.80
2018-11-27T11:14:47.558Z,24.90
2018-11-27T11:15:47.539Z,27.30
2018-11-27T11:16:47.529Z,26.30
2018-11-27T11:17:47.839Z,26.10
2018-11-27T11:18:47.508Z,25.40
2018-11-27T11:19:47.495Z,25.90
2018-11-27T11:20:47.494Z,25.90
2018-11-27T11:21:47.556Z,26.70
2018-11-27T11:22:47.541Z,26.60
2018-11-27T11:23:47.451Z,23.20
2018-11-27T11:24:47.444Z,24.90
2018-11-27T11:25:47.429Z,26.00
2018-11-27T11:26:47.419Z,23.40
2018-11-27T11:27:47.408Z,23.90
2018-11-27T11:28:47.402Z,24.60
2018-11-27T11:29:47.386Z,25.20
2018-11-27T11:30:47.377Z,26.80
2018-11-27T11:31:47.389Z,24.10
2018-11-27T11:32:47.354Z,26.20
2018-11-27T11:33:47.352Z,24.60
2018-11-27T11:34:47.333Z,25.50
2018-11-27T11:35:47.319Z,25.80
2018-11-27T11:36:47.310Z,23.40
2018-11-27T11:37:47.300Z,25.80
2018-11-27T11:38:47.290Z,26.20
2018-11-27T11:39:47.279Z,21.70
2018-11-27T11:40:47.267Z,22.20
2018-11-27T11:41:47.257Z,24.90
2018-11-27T11:42:47.244Z,25.30
2018-11-27T11:43:47.234Z,25.30
2018-11-27T11:44:47.229Z,23.20
2018-11-27T11:45:47.213Z,23.60
2018-11-27T11:46:47.204Z,23.20
2018-11-27T11:47:47.192Z,24.30
2018-11-27T11:48:47.180Z,22.90
2018-11-27T11:49:47.179Z,22.40
2018-11-27T11:50:47.155Z,22.80
2018-11-27T11:51:47.152Z,23.70
2018-11-27T11:52:47.139Z,22.20
2018-11-27T11:53:47.124Z,24.40
2018-11-27T11:54:47.132Z,26.80
2018-11-27T11:55:47.106Z,26.90
2018-11-27T11:56:47.095Z,23.70
2018-11-27T11:57:47.300Z,24.80
2018-11-27T11:58:47.080Z,24.40
2018-11-27T11:59:47.065Z,21.90
2018-11-27T12:00:47.173Z,24.80
2018-11-27T12:01:47.039Z,25.60
2018-11-27T12:02:47.032Z,23.70
2018-11-27T12:03:47.021Z,24.70
2018-11-27T12:04:47.007Z,26.80
2018-11-27T12:05:46.998Z,24.20
2018-11-27T12:06:46.992Z,23.70
2018-11-27T12:07:46.978Z,25.10
2018-11-27T12:08:47.207Z,26.20
2018-11-27T12:09:46.971Z,25.00
2018-11-27T12:10:46.944Z,23.00
2018-11-27T12:11:46.932Z,23.80
2018-11-27T12:12:46.931Z,22.40
2018-11-27T12:13:46.916Z,27.00
2018-11-27T12:14:46.900Z,24.90
2018-11-27T12:15:46.892Z,23.30
2018-11-27T12:16:46.879Z,23.90
2018-11-27T12:17:47.402Z,24.50
2018-11-27T12:18:47.851Z,23.40
2018-11-27T12:19:47.040Z,23.10
2018-11-27T12:20:47.700Z,21.60
2018-11-27T12:21:47.011Z,24.30
2018-11-27T12:22:47.289Z,21.80
2018-11-27T12:23:46.974Z,22.00
2018-11-27T12:24:47.027Z,20.70
2018-11-27T12:25:47.095Z,23.10
2018-11-27T12:26:47.396Z,22.40
2018-11-27T12:27:46.982Z,22.70
2018-11-27T12:28:47.174Z,24.60
2018-11-27T12:29:46.960Z,22.60
2018-11-27T12:30:47.263Z,25.70
2018-11-27T12:31:46.863Z,23.40
2018-11-27T12:32:47.392Z,23.10
2018-11-27T12:33:47.383Z,22.70
2018-11-27T12:34:46.829Z,23.90
2018-11-27T12:35:46.862Z,24.00
2018-11-27T12:36:46.781Z,22.20
2018-11-27T12:37:46.787Z,23.60
2018-11-27T12:38:46.714Z,23.60
2018-11-27T12:39:46.922Z,25.20
2018-11-27T12:40:46.772Z,23.20
2018-11-27T12:41:46.779Z,24.70
2018-11-27T12:42:46.747Z,23.70
2018-11-27T12:43:46.689Z,22.30
2018-11-27T12:44:46.580Z,24.70
2018-11-27T12:45:46.566Z,24.00
2018-11-27T12:46:46.669Z,21.20
2018-11-27T12:47:47.013Z,19.70
2018-11-27T12:48:46.566Z,21.90
2018-11-27T12:49:46.941Z,21.20
2018-11-27T12:50:46.560Z,21.80
2018-11-27T12:51:46.828Z,23.10
2018-11-27T12:52:46.621Z,20.10